Time;durP1;ratioP1;P1;durP2;ratioP2;P2;SDS_P1;SDS_P2;PMS_P1;PMS_P2;Temp;Humidity;BMP_temperature;BMP_pressure;BME280_temperature;BME280_humidity;BME280_pressure;Samples;Min_cycle;Max_cycle;Signal;HPM_P1;HPM_P2
2023/05/04 00:02:17;;;;;;;11.12;5.97;;;;;;;15.38;66.28;100283.12;7712097;32;37947;-78
2023/05/04 00:06:33;;;;;;;9.00;5.93;;;;;;;15.37;66.15;100289.72;7737438;32;37211;-79
2023/05/04 00:10:50;;;;;;;9.15;5.55;;;;;;;15.45;66.08;100288.22;7735804;32;39501;-78
2023/05/04 00:15:06;;;;;;;10.75;5.45;;;;;;;15.27;66.43;100292.56;7736883;32;39547;-77
2023/05/04 00:19:23;;;;;;;9.30;5.80;;;;;;;15.21;66.60;100291.81;7736621;32;37774;-78
2023/05/04 00:23:39;;;;;;;9.00;5.85;;;;;;;15.19;66.79;100282.19;7725441;32;37266;-78
2023/05/04 00:27:55;;;;;;;11.73;6.47;;;;;;;15.29;66.24;100276.59;7709748;32;40150;-78
2023/05/04 00:32:12;;;;;;;13.25;6.32;;;;;;;15.28;66.13;100274.97;7720382;32;40781;-78
2023/05/04 00:36:28;;;;;;;9.80;6.32;;;;;;;15.34;65.72;100273.78;7733623;32;37918;-78
2023/05/04 00:40:44;;;;;;;9.52;6.10;;;;;;;15.14;66.33;100271.28;7733541;32;37647;-78
2023/05/04 00:45:01;;;;;;;8.57;5.20;;;;;;;15.16;66.30;100274.53;7712535;32;39214;-78
2023/05/04 00:49:17;;;;;;;10.38;6.03;;;;;;;15.24;66.18;100273.09;7710039;32;40990;-76
2023/05/04 00:53:35;;;;;;;12.37;5.85;;;;;;;15.10;66.49;100267.47;7709976;32;38029;-78
2023/05/04 00:57:51;;;;;;;13.20;5.97;;;;;;;15.21;66.22;100269.00;7711905;32;38024;-78
2023/05/04 01:02:08;;;;;;;11.38;6.03;;;;;;;15.14;66.21;100263.87;7711942;32;40097;-78
2023/05/04 01:06:33;;;;;;;10.25;6.10;;;;;;;15.06;66.45;100266.44;7712948;32;39970;-78
2023/05/04 01:10:55;;;;;;;10.00;6.10;;;;;;;15.05;66.62;100259.28;7711790;32;38652;-78
2023/05/04 01:15:12;;;;;;;9.60;6.45;;;;;;;15.13;66.40;100264.16;7712938;32;37984;-78
2023/05/04 01:19:29;;;;;;;9.93;6.12;;;;;;;15.13;66.54;100261.41;7712896;32;39078;-78
2023/05/04 01:23:45;;;;;;;14.05;6.05;;;;;;;15.20;66.09;100267.37;7712695;32;40023;-79
2023/05/04 01:28:12;;;;;;;11.98;6.75;;;;;;;15.11;66.25;100264.44;7725186;32;38831;-78
2023/05/04 01:32:30;;;;;;;10.43;6.35;;;;;;;15.23;65.77;100260.47;7738475;32;36901;-79
2023/05/04 01:36:46;;;;;;;12.18;6.68;;;;;;;15.18;65.94;100250.37;7738046;32;39479;-78
2023/05/04 01:41:03;;;;;;;10.88;5.85;;;;;;;14.91;66.77;100259.16;7734929;32;40937;-79
2023/05/04 01:45:20;;;;;;;10.88;6.12;;;;;;;15.13;66.11;100255.91;7739361;32;38022;-79
2023/05/04 01:49:36;;;;;;;15.20;6.15;;;;;;;15.17;65.91;100245.97;7734982;32;37148;-78
2023/05/04 01:53:53;;;;;;;10.50;5.47;;;;;;;15.13;66.06;100242.19;7739334;32;39139;-80
2023/05/04 01:58:09;;;;;;;8.73;5.30;;;;;;;15.24;65.67;100235.47;7712340;32;38520;-79
2023/05/04 02:02:25;;;;;;;12.15;6.45;;;;;;;15.11;66.02;100236.97;7711074;32;38765;-79
2023/05/04 02:06:42;;;;;;;11.05;5.93;;;;;;;15.16;65.76;100227.84;7712196;32;37969;-78
2023/05/04 02:10:58;;;;;;;8.65;6.10;;;;;;;15.16;65.82;100222.34;7712558;32;39251;-79
2023/05/04 02:15:14;;;;;;;13.35;6.28;;;;;;;15.27;65.38;100218.41;7712342;32;40037;-79
2023/05/04 02:19:30;;;;;;;10.30;6.65;;;;;;;15.24;65.62;100218.16;7712124;32;38701;-79
2023/05/04 02:23:47;;;;;;;9.75;6.15;;;;;;;15.24;65.57;100224.47;7712733;32;37641;-79
2023/05/04 02:28:03;;;;;;;10.90;7.00;;;;;;;15.19;65.49;100216.28;7711960;32;40138;-78
2023/05/04 02:32:19;;;;;;;15.13;6.97;;;;;;;15.10;66.18;100215.31;7712168;32;40991;-80
2023/05/04 02:36:36;;;;;;;11.77;7.30;;;;;;;15.19;65.91;100210.78;7712036;32;38394;-79
2023/05/04 02:40:52;;;;;;;10.23;7.07;;;;;;;15.06;66.35;100217.00;7712041;32;37959;-79
2023/05/04 02:45:09;;;;;;;12.20;7.03;;;;;;;15.11;66.24;100222.41;7712086;32;40091;-80
2023/05/04 02:49:25;;;;;;;11.70;6.90;;;;;;;15.21;66.00;100220.41;7711936;32;39976;-79
2023/05/04 02:53:41;;;;;;;11.98;6.85;;;;;;;15.17;65.90;100222.06;7735589;32;38033;-79
2023/05/04 02:57:58;;;;;;;11.25;6.70;;;;;;;15.14;66.13;100224.59;7738638;32;37257;-79
2023/05/04 03:02:14;;;;;;;10.25;6.93;;;;;;;15.03;66.69;100224.69;7738622;32;39143;-78
2023/05/04 03:06:30;;;;;;;12.48;6.12;;;;;;;15.00;66.65;100228.03;7738285;32;40021;-79
2023/05/04 03:10:46;;;;;;;12.98;6.22;;;;;;;15.01;66.57;100237.09;7738038;32;37950;-79
2023/05/04 03:15:03;;;;;;;20.23;7.70;;;;;;;15.22;65.68;100237.69;7738432;32;37088;-78
2023/05/04 03:19:20;;;;;;;9.00;5.95;;;;;;;15.07;66.03;100237.84;7728147;32;39485;-78
2023/05/04 03:23:37;;;;;;;12.77;6.22;;;;;;;15.21;65.42;100236.87;7711415;32;40792;-80
2023/05/04 03:27:53;;;;;;;12.37;6.82;;;;;;;15.07;65.84;100240.59;7711433;32;38046;-79
2023/05/04 03:32:10;;;;;;;10.55;5.87;;;;;;;15.01;66.09;100248.06;7736775;32;37901;-79
2023/05/04 03:36:26;;;;;;;22.83;6.62;;;;;;;15.12;65.82;100248.78;7738311;32;39126;-79
2023/05/04 03:40:43;;;;;;;12.48;6.85;;;;;;;15.02;66.32;100253.28;7738171;32;39914;-79
2023/05/04 03:45:00;;;;;;;11.70;7.15;;;;;;;14.96;66.65;100256.38;7737954;32;38762;-79
2023/05/04 03:49:19;;;;;;;10.70;6.50;;;;;;;15.02;66.49;100256.03;7734849;32;37895;-79
2023/05/04 03:53:35;;;;;;;13.60;6.62;;;;;;;14.84;67.17;100263.03;7738034;32;39383;-79
2023/05/04 03:57:51;;;;;;;10.18;6.80;;;;;;;14.97;66.83;100263.47;7737847;32;39988;-80
2023/05/04 04:02:08;;;;;;;14.55;7.45;;;;;;;14.88;67.32;100270.72;7737810;32;38425;-80
2023/05/04 04:06:24;;;;;;;14.95;6.68;;;;;;;14.83;67.70;100275.16;7737764;32;38302;-79
2023/05/04 04:10:41;;;;;;;10.55;6.10;;;;;;;14.85;67.66;100269.38;7737754;32;39958;-79
2023/05/04 04:14:57;;;;;;;10.00;6.47;;;;;;;14.99;67.09;100262.09;7730449;32;39891;-78
2023/05/04 04:19:13;;;;;;;11.98;6.25;;;;;;;14.88;67.41;100265.22;7710831;32;37970;-79
2023/05/04 04:23:29;;;;;;;11.68;7.37;;;;;;;14.89;67.27;100259.44;7710533;32;37171;-79
2023/05/04 04:27:46;;;;;;;12.40;7.05;;;;;;;15.12;66.06;100260.56;7725947;32;40075;-79
2023/05/04 04:32:03;;;;;;;11.02;6.22;;;;;;;15.10;65.98;100262.00;7735920;32;39973;-78
2023/05/04 04:36:19;;;;;;;11.40;6.40;;;;;;;15.13;65.74;100256.72;7737288;32;37727;-79
2023/05/04 04:40:35;;;;;;;10.98;5.80;;;;;;;14.93;66.20;100256.94;7737190;32;37322;-79
2023/05/04 04:44:52;;;;;;;8.43;4.57;;;;;;;15.05;66.10;100259.28;7736471;32;39326;-79
2023/05/04 04:49:08;;;;;;;7.62;4.40;;;;;;;15.06;66.32;100264.50;7736990;32;41206;-79
2023/05/04 04:53:25;;;;;;;7.30;3.80;;;;;;;15.13;66.14;100264.16;7736798;32;38728;-79
2023/05/04 04:57:41;;;;;;;6.28;3.25;;;;;;;15.22;64.96;100259.66;7736873;32;37157;-79
2023/05/04 05:01:58;;;;;;;7.22;3.58;;;;;;;15.30;64.37;100261.78;7736707;32;39372;-79
2023/05/04 05:06:14;;;;;;;8.55;3.92;;;;;;;15.11;65.62;100275.44;7736504;32;40749;-79
2023/05/04 05:10:31;;;;;;;5.78;3.40;;;;;;;15.08;65.43;100265.03;7734822;32;37814;-80
2023/05/04 05:14:49;;;;;;;7.50;3.00;;;;;;;15.15;65.20;100270.16;7736347;32;37619;-80
2023/05/04 05:19:06;;;;;;;8.93;3.10;;;;;;;15.45;63.93;100266.25;7736401;32;38453;-79
2023/05/04 05:23:22;;;;;;;6.87;3.25;;;;;;;15.38;62.22;100271.28;7736036;32;40647;-82
2023/05/04 05:27:39;;;;;;;4.85;3.15;;;;;;;15.27;62.45;100278.03;7735956;32;37879;-79
2023/05/04 05:31:55;;;;;;;5.25;2.75;;;;;;;15.08;63.83;100272.44;7736008;32;37015;-80
2023/05/04 05:36:13;;;;;;;6.28;2.90;;;;;;;15.09;62.76;100282.31;7724029;32;39508;-79
2023/05/04 05:40:30;;;;;;;4.03;3.00;;;;;;;15.16;63.03;100277.28;7724659;32;39981;-80
2023/05/04 05:44:46;;;;;;;5.10;3.35;;;;;;;15.02;64.06;100285.38;7728025;32;38483;-79
2023/05/04 05:49:06;;;;;;;5.35;3.17;;;;;;;15.37;63.27;100284.22;7734885;32;37639;-79
2023/05/04 05:53:22;;;;;;;7.25;3.60;;;;;;;15.37;63.82;100283.41;7719057;32;39299;-80
2023/05/04 05:57:38;;;;;;;8.85;3.53;;;;;;;15.37;64.70;100289.72;7739447;32;39785;-79
2023/05/04 06:01:55;;;;;;;5.20;3.08;;;;;;;15.53;64.64;100295.03;7739256;32;37939;-80
2023/05/04 06:06:11;;;;;;;7.82;3.10;;;;;;;15.55;62.20;100292.81;7733925;32;37006;-80
2023/05/04 06:10:28;;;;;;;3.92;2.90;;;;;;;15.69;61.63;100293.72;7739342;32;39516;-80
2023/05/04 06:14:44;;;;;;;3.40;2.20;;;;;;;15.93;61.17;100293.72;7739238;32;40734;-74
2023/05/04 06:19:00;;;;;;;6.10;2.55;;;;;;;16.18;58.47;100297.25;7733420;32;38665;-76
2023/05/04 06:23:17;;;;;;;4.45;2.15;;;;;;;16.03;57.06;100300.22;7712216;32;37009;-69
2023/05/04 06:27:33;;;;;;;4.85;2.12;;;;;;;16.13;57.59;100306.38;7712271;32;40074;-67
2023/05/04 06:31:50;;;;;;;3.53;2.37;;;;;;;16.42;58.00;100305.44;7712295;32;40018;-79
2023/05/04 06:36:06;;;;;;;3.17;2.17;;;;;;;16.49;54.48;100311.37;7716514;32;38805;-79
2023/05/04 06:40:23;;;;;;;3.33;2.28;;;;;;;16.77;53.87;100319.75;7712046;32;36774;-79
2023/05/04 06:44:40;;;;;;;4.32;2.10;;;;;;;16.87;54.64;100319.59;7720719;32;40048;-80
2023/05/04 06:48:57;;;;;;;6.35;2.58;;;;;;;16.83;53.64;100313.03;7734296;32;40033;-79
2023/05/04 06:53:13;;;;;;;3.20;2.20;;;;;;;17.12;54.82;100309.25;7737199;32;38801;-79
2023/05/04 06:57:30;;;;;;;2.83;2.00;;;;;;;17.10;53.94;100316.19;7731165;32;37087;-79
2023/05/04 07:01:47;;;;;;;4.90;2.47;;;;;;;17.30;53.44;100298.47;7734127;32;40312;-76
2023/05/04 07:06:03;;;;;;;3.15;2.10;;;;;;;17.51;55.67;100302.47;7734312;32;40286;-79
2023/05/04 07:10:19;;;;;;;8.07;2.80;;;;;;;17.74;53.11;100302.56;7725488;32;37965;-79
2023/05/04 07:14:36;;;;;;;5.05;2.20;;;;;;;17.83;52.25;100311.75;7710820;32;37762;-80
2023/05/04 07:18:52;;;;;;;4.62;2.47;;;;;;;17.52;51.78;100315.09;7728659;32;38977;-79
2023/05/04 07:23:08;;;;;;;4.03;2.10;;;;;;;17.75;51.75;100316.03;7737507;32;41291;-80
2023/05/04 07:27:24;;;;;;;2.85;2.00;;;;;;;17.90;51.64;100312.19;7737831;32;37690;-79
2023/05/04 07:31:41;;;;;;;7.25;2.30;;;;;;;18.48;52.76;100307.03;7738313;32;36763;-79
2023/05/04 07:35:58;;;;;;;7.03;2.12;;;;;;;18.38;51.37;100311.69;7738229;32;40089;-78
2023/05/04 07:40:14;;;;;;;2.70;2.05;;;;;;;18.54;50.72;100305.78;7736919;32;39927;-78
2023/05/04 07:44:31;;;;;;;2.22;2.00;;;;;;;18.35;51.02;100312.31;7738094;32;38085;-79
2023/05/04 07:48:48;;;;;;;4.20;2.08;;;;;;;18.73;50.36;100306.44;7736702;32;37042;-79
2023/05/04 07:53:04;;;;;;;3.28;1.73;;;;;;;18.63;50.84;100303.91;7729108;32;39370;-79
2023/05/04 07:57:21;;;;;;;3.65;1.87;;;;;;;18.62;50.19;100310.56;7713596;32;39738;-79
2023/05/04 08:01:37;;;;;;;2.30;1.80;;;;;;;19.20;48.95;100310.81;7712492;32;37982;-79
2023/05/04 08:05:53;;;;;;;6.62;2.12;;;;;;;18.54;46.78;100308.53;7737137;32;37857;-80
2023/05/04 08:10:10;;;;;;;5.12;2.00;;;;;;;18.91;49.41;100307.38;7737672;32;40117;-80
2023/05/04 08:14:26;;;;;;;2.70;2.12;;;;;;;18.69;47.38;100310.94;7736006;32;39867;-69
2023/05/04 08:18:42;;;;;;;3.50;2.35;;;;;;;18.74;47.17;100308.03;7737670;32;38042;-80
2023/05/04 08:23:01;;;;;;;2.53;2.15;;;;;;;19.15;47.68;100306.22;7737401;32;36820;-80
2023/05/04 08:27:17;;;;;;;4.03;2.20;;;;;;;18.96;45.93;100309.22;7734837;32;40109;-80
2023/05/04 08:31:35;;;;;;;3.80;2.10;;;;;;;19.35;45.97;100302.09;7737331;32;39937;-80
2023/05/04 08:35:52;;;;;;;3.47;1.87;;;;;;;18.72;47.16;100315.84;7726014;32;37022;-79
2023/05/04 08:40:11;;;;;;;4.55;1.87;;;;;;;18.86;49.01;100312.22;7711218;32;37826;-79
2023/05/04 08:44:28;;;;;;;4.75;2.00;;;;;;;19.17;47.80;100314.19;7709776;32;40153;-79
2023/05/04 08:48:45;;;;;;;3.00;2.20;;;;;;;19.20;48.20;100319.09;7708710;32;40763;-80
2023/05/04 08:53:04;;;;;;;3.42;2.25;;;;;;;17.94;50.23;100318.72;7710008;32;38514;-79
2023/05/04 08:57:22;;;;;;;5.55;2.45;;;;;;;19.06;50.64;100310.91;7709004;32;37691;-80
2023/05/04 09:01:39;;;;;;;4.03;2.10;;;;;;;19.11;48.50;100308.00;7711363;32;40078;-80
2023/05/04 09:05:56;;;;;;;3.28;2.10;;;;;;;19.14;46.36;100299.06;7735146;32;40740;-80
2023/05/04 09:10:12;;;;;;;3.33;2.08;;;;;;;19.03;46.52;100304.03;7736288;32;38750;-80
2023/05/04 09:14:33;;;;;;;3.33;2.25;;;;;;;19.01;47.91;100300.78;7736224;32;36810;-80
2023/05/04 09:18:50;;;;;;;4.75;2.55;;;;;;;18.95;46.59;100302.03;7728236;32;40194;-81
2023/05/04 09:23:08;;;;;;;2.58;2.10;;;;;;;19.01;47.30;100298.03;7722581;32;40087;-79
2023/05/04 09:27:24;;;;;;;3.35;2.33;;;;;;;19.16;49.50;100296.78;7732883;32;38790;-68
2023/05/04 09:31:46;;;;;;;3.95;2.30;;;;;;;19.73;48.21;100298.84;7729340;32;36964;-79
2023/05/04 09:36:16;;;;;;;2.00;1.83;;;;;;;20.14;48.35;100297.63;7727307;32;38246;-78
2023/05/04 09:40:41;;;;;;;4.85;2.17;;;;;;;20.19;46.36;100282.81;7722529;32;40068;-81
2023/05/04 09:45:06;;;;;;;6.12;2.10;;;;;;;20.91;44.90;100278.56;7738915;32;38707;-82
2023/05/04 09:49:49;;;;;;;2.92;1.98;;;;;;;20.33;42.87;100288.19;7719290;32;37000;-81
2023/05/04 09:54:05;;;;;;;6.37;2.17;;;;;;;20.76;43.15;100287.38;7730121;32;40073;-80
2023/05/04 09:58:23;;;;;;;3.33;2.15;;;;;;;20.79;40.30;100282.00;7722275;32;39940;-81
2023/05/04 10:02:41;;;;;;;3.45;2.05;;;;;;;21.30;41.04;100282.19;7729114;32;37994;-81
2023/05/04 10:06:58;;;;;;;3.83;1.90;;;;;;;22.26;39.47;100275.28;7736349;32;37115;-68
2023/05/04 10:11:17;;;;;;;3.72;2.10;;;;;;;22.52;37.49;100274.28;7732305;32;39327;-75
2023/05/04 10:15:35;;;;;;;3.15;2.08;;;;;;;22.90;42.28;100264.91;7717753;32;39982;-74
2023/05/04 10:20:06;;;;;;;3.05;1.83;;;;;;;23.18;41.92;100263.16;7712266;32;38059;-82
2023/05/04 10:24:32;;;;;;;6.87;2.47;;;;;;;23.14;39.75;100261.41;7718108;32;36832;-80
2023/05/04 10:29:17;;;;;;;3.97;2.55;;;;;;;22.75;42.91;100253.31;7728822;32;39314;-83
2023/05/04 10:33:42;;;;;;;2.30;2.00;;;;;;;22.95;43.52;100248.03;7730628;32;39163;-80
2023/05/04 10:37:59;;;;;;;;;;;;;;;23.07;40.26;100245.28;7729939;32;37642;-81
2023/05/04 10:42:15;;;;;;;3.72;2.20;;;;;;;23.14;39.12;100245.53;7730463;32;37074;-81
2023/05/04 10:46:31;;;;;;;5.12;2.15;;;;;;;23.70;41.14;100238.56;7722288;32;39550;-79
2023/05/04 10:50:49;;;;;;;4.15;2.37;;;;;;;23.06;42.32;100238.13;7728726;32;40807;-83
2023/05/04 10:55:07;;;;;;;4.03;2.17;;;;;;;23.33;39.98;100235.81;7734998;32;37991;-80
2023/05/04 10:59:24;;;;;;;5.70;2.50;;;;;;;23.24;40.44;100239.50;7712874;32;36718;-82
2023/05/04 11:03:40;;;;;;;3.65;2.47;;;;;;;23.40;39.40;100238.81;7732422;32;40086;-83
2023/05/04 11:07:57;;;;;;;4.20;2.33;;;;;;;22.57;40.63;100235.97;7728612;32;40791;-82
2023/05/04 11:12:15;;;;;;;2.55;2.05;;;;;;;22.84;40.54;100231.78;7723817;32;37910;-81
2023/05/04 11:16:31;;;;;;;6.03;2.70;;;;;;;22.90;39.93;100228.78;7725124;32;37124;-79
2023/05/04 11:20:47;;;;;;;4.37;2.25;;;;;;;22.40;39.58;100223.06;7722587;32;39256;-80
2023/05/04 11:25:05;;;;;;;3.60;2.45;;;;;;;22.30;40.01;100223.47;7732693;32;40059;-79
2023/05/04 11:29:21;;;;;;;5.15;2.65;;;;;;;21.36;40.51;100219.84;7732137;32;38899;-78
2023/05/04 11:33:38;;;;;;;10.00;3.50;;;;;;;21.11;43.30;100218.00;7733512;32;36618;-79
2023/05/04 11:37:55;;;;;;;5.65;3.12;;;;;;;21.61;44.30;100206.22;7720786;32;39317;-80
2023/05/04 11:42:11;;;;;;;6.35;3.22;;;;;;;20.68;44.17;100213.41;7722421;32;39473;-77
2023/05/04 11:46:27;;;;;;;3.72;2.70;;;;;;;20.90;44.59;100213.19;7735894;32;38032;-77
2023/05/04 11:50:44;;;;;;;8.98;2.90;;;;;;;20.70;44.85;100208.38;7736982;32;37094;-77
2023/05/04 11:55:02;;;;;;;11.50;2.60;;;;;;;20.80;47.20;100213.56;7736760;32;39064;-77
2023/05/04 11:59:18;;;;;;;5.62;2.70;;;;;;;21.07;44.32;100205.97;7737940;32;40726;-77
2023/05/04 12:03:38;;;;;;;6.00;2.62;;;;;;;21.01;45.37;100208.91;7737907;32;37719;-77
2023/05/04 12:08:11;;;;;;;6.95;3.00;;;;;;;20.71;45.89;100207.22;7737935;32;37791;-82
2023/05/04 12:12:35;;;;;;;5.78;3.15;;;;;;;20.81;46.45;100204.09;7736789;32;39117;-81
2023/05/04 12:16:56;;;;;;;5.40;2.60;;;;;;;21.14;44.47;100207.06;7737723;32;40732;-81
2023/05/04 12:21:18;;;;;;;4.20;2.42;;;;;;;21.28;45.33;100209.59;7737719;32;38009;-82
2023/05/04 12:25:34;;;;;;;4.22;2.55;;;;;;;21.56;43.57;100206.41;7737551;32;36884;-81
2023/05/04 12:30:06;;;;;;;4.10;2.60;;;;;;;21.36;44.03;100200.44;7737479;32;39295;-81
2023/05/04 12:34:23;;;;;;;8.80;2.72;;;;;;;21.61;45.33;100194.28;7736841;32;40535;-81
2023/05/04 12:38:39;;;;;;;8.55;2.90;;;;;;;21.42;44.06;100189.16;7737260;32;38066;-82
2023/05/04 12:42:55;;;;;;;5.95;3.10;;;;;;;21.71;43.86;100180.84;7737250;32;37158;-81
2023/05/04 12:47:12;;;;;;;5.43;3.03;;;;;;;21.80;44.41;100182.72;7737189;32;40091;-81
2023/05/04 12:51:29;;;;;;;6.80;2.87;;;;;;;21.90;46.03;100176.75;7735952;32;39690;-81
2023/05/04 12:55:45;;;;;;;4.07;2.97;;;;;;;22.34;43.68;100179.22;7736905;32;37998;-81
2023/05/04 13:00:02;;;;;;;4.72;2.92;;;;;;;21.99;42.91;100174.75;7736498;32;37101;-81
2023/05/04 13:04:18;;;;;;;4.47;2.90;;;;;;;22.27;44.58;100168.63;7736707;32;39695;-82
2023/05/04 13:08:35;;;;;;;5.65;2.75;;;;;;;22.86;39.44;100170.28;7736434;32;40541;-81
2023/05/04 13:12:51;;;;;;;6.20;2.87;;;;;;;23.47;40.86;100158.38;7736544;32;38689;-81
2023/05/04 13:17:07;;;;;;;5.03;2.90;;;;;;;23.59;40.23;100155.59;7736432;32;38135;-81
2023/05/04 13:21:24;;;;;;;7.40;2.78;;;;;;;24.54;36.61;100148.75;7724563;32;378143;-81
2023/05/04 13:25:40;;;;;;;3.37;2.60;;;;;;;24.63;39.72;100141.03;7736271;32;40225;-82
2023/05/04 13:29:59;;;;;;;3.72;2.67;;;;;;;24.45;36.39;100131.34;7736079;32;38549;-81
2023/05/04 13:34:16;;;;;;;5.25;2.85;;;;;;;24.96;35.18;100123.13;7736022;32;37034;-81
2023/05/04 13:38:32;;;;;;;3.45;2.70;;;;;;;24.00;35.76;100120.19;7735954;32;39301;-82
2023/05/04 13:42:48;;;;;;;5.15;2.65;;;;;;;22.98;37.10;100127.78;7735695;32;39976;-81
2023/05/04 13:47:04;;;;;;;5.45;2.83;;;;;;;22.95;36.92;100112.59;7735495;32;37747;-82
2023/05/04 13:51:21;;;;;;;3.78;2.80;;;;;;;23.89;36.61;100112.72;7735419;32;37832;-81
2023/05/04 13:55:37;;;;;;;13.02;3.95;;;;;;;24.34;37.09;100106.81;7735570;32;39541;-81
2023/05/04 13:59:58;;;;;;;5.78;3.90;;;;;;;24.63;38.31;100107.59;7735284;32;40005;-81
2023/05/04 14:04:23;;;;;;;6.45;3.83;;;;;;;24.92;37.43;100094.34;7738445;32;38588;-82
2023/05/04 14:08:39;;;;;;;5.22;3.20;;;;;;;24.35;39.03;100086.16;7739208;32;37252;-81
2023/05/04 14:12:55;;;;;;;13.93;4.05;;;;;;;24.08;38.95;100092.56;7739319;32;39393;-82
2023/05/04 14:17:12;;;;;;;6.45;3.72;;;;;;;23.97;36.45;100093.09;7739168;32;39888;-81
2023/05/04 14:21:28;;;;;;;7.53;3.80;;;;;;;23.95;38.39;100089.81;7738785;32;37958;-82
2023/05/04 14:25:52;;;;;;;9.23;4.05;;;;;;;23.37;39.22;100080.94;7739146;32;37158;-80
2023/05/04 14:30:09;;;;;;;6.12;4.03;;;;;;;23.41;38.25;100087.44;7738590;32;39364;-81
2023/05/04 14:34:25;;;;;;;6.03;3.30;;;;;;;23.59;39.59;100079.62;7738759;32;40711;-81
2023/05/04 14:38:44;;;;;;;5.62;3.33;;;;;;;23.20;39.02;100082.06;7738946;32;37979;-81
2023/05/04 14:43:01;;;;;;;4.87;3.25;;;;;;;23.14;38.88;100078.69;7737987;32;36801;-81
2023/05/04 14:47:18;;;;;;;7.43;3.20;;;;;;;23.44;37.72;100079.22;7738981;32;39322;-82
2023/05/04 14:51:35;;;;;;;5.28;3.50;;;;;;;23.00;38.64;100083.78;7738727;32;40028;-82
2023/05/04 14:55:51;;;;;;;6.53;3.45;;;;;;;23.73;37.62;100073.66;7738662;32;38811;-81
2023/05/04 15:00:09;;;;;;;4.50;2.92;;;;;;;23.38;39.10;100077.81;7738804;32;37745;-81
2023/05/04 15:04:26;;;;;;;7.25;3.33;;;;;;;23.96;38.88;100076.72;7738811;32;38389;-81
2023/05/04 15:08:42;;;;;;;6.00;3.62;;;;;;;24.15;39.28;100076.06;7738603;32;39721;-82
2023/05/04 15:13:00;;;;;;;10.77;3.62;;;;;;;23.67;37.20;100078.66;7737621;32;38584;-81
2023/05/04 15:17:16;;;;;;;9.82;3.67;;;;;;;23.66;38.49;100074.25;7738415;32;37278;-82
2023/05/04 15:21:35;;;;;;;5.20;3.33;;;;;;;23.22;38.52;100079.72;7738506;32;38322;-82
2023/05/04 15:25:51;;;;;;;6.25;3.50;;;;;;;23.11;39.70;100079.41;7738329;32;39943;-82
2023/05/04 15:30:08;;;;;;;5.37;3.28;;;;;;;23.24;38.65;100069.06;7738248;32;38084;-81
2023/05/04 15:34:25;;;;;;;5.90;3.80;;;;;;;22.78;39.80;100071.94;7738321;32;36829;-81
2023/05/04 15:38:42;;;;;;;5.62;3.37;;;;;;;23.30;38.64;100066.84;7737143;32;39280;-83
2023/05/04 15:42:58;;;;;;;5.35;3.00;;;;;;;22.78;39.14;100066.38;7737101;32;41268;-82
2023/05/04 15:47:14;;;;;;;4.93;3.20;;;;;;;22.83;39.75;100063.38;7738141;32;37995;-82
2023/05/04 15:51:31;;;;;;;7.05;3.03;;;;;;;22.87;39.28;100069.88;7738092;32;37039;-81
2023/05/04 15:55:49;;;;;;;7.37;3.15;;;;;;;22.36;40.49;100063.81;7738087;32;40199;-82
2023/05/04 16:00:07;;;;;;;5.70;3.50;;;;;;;22.45;40.62;100064.53;7737855;32;39902;-81
2023/05/04 16:04:24;;;;;;;5.60;2.90;;;;;;;22.28;40.20;100059.19;7737924;32;37735;-81
2023/05/04 16:08:40;;;;;;;4.47;2.85;;;;;;;22.46;41.46;100057.81;7737752;32;37012;-82
2023/05/04 16:13:02;;;;;;;4.87;3.22;;;;;;;22.15;40.28;100047.22;7737621;32;39362;-81
2023/05/04 16:17:19;;;;;;;6.00;3.28;;;;;;;22.11;40.48;100057.37;7737861;32;39589;-82
2023/05/04 16:21:35;;;;;;;6.93;3.22;;;;;;;22.21;40.89;100065.25;7737651;32;38826;-81
2023/05/04 16:25:52;;;;;;;4.90;3.10;;;;;;;21.72;41.70;100065.91;7737363;32;36684;-82
2023/05/04 16:30:08;;;;;;;4.97;3.30;;;;;;;21.30;42.08;100070.63;7737491;32;40027;-82
2023/05/04 16:34:25;;;;;;;5.53;3.47;;;;;;;21.25;42.62;100074.44;7737518;32;40852;-82
2023/05/04 16:38:41;;;;;;;8.75;3.62;;;;;;;20.95;42.97;100073.63;7737344;32;38043;-82
2023/05/04 16:42:58;;;;;;;5.03;3.17;;;;;;;21.21;43.22;100081.78;7735644;32;37838;-81
2023/05/04 16:47:15;;;;;;;6.75;3.62;;;;;;;20.99;43.93;100072.62;7735538;32;40327;-81
2023/05/04 16:51:31;;;;;;;5.72;3.67;;;;;;;20.90;43.65;100071.84;7735819;32;40758;-82
2023/05/04 16:55:49;;;;;;;7.72;3.55;;;;;;;20.71;44.42;100075.06;7736866;32;37915;-81
2023/05/04 17:00:06;;;;;;;6.53;3.70;;;;;;;20.72;44.26;100073.91;7736923;32;36288;-81
2023/05/04 17:04:24;;;;;;;8.98;3.40;;;;;;;20.79;44.21;100076.16;7736726;32;39359;-81
2023/05/04 17:08:40;;;;;;;6.07;3.45;;;;;;;20.73;44.51;100085.81;7736472;32;40741;-82
2023/05/04 17:12:56;;;;;;;7.82;3.37;;;;;;;20.78;44.30;100077.31;7736444;32;38043;-82
2023/05/04 17:17:15;;;;;;;5.78;3.28;;;;;;;20.54;44.71;100092.53;7736469;32;36148;-82
2023/05/04 17:21:31;;;;;;;9.77;3.78;;;;;;;20.57;44.47;100097.41;7735150;32;38646;-82
2023/05/04 17:25:49;;;;;;;5.95;3.83;;;;;;;20.53;44.64;100093.69;7735909;32;40983;-80
2023/05/04 17:30:05;;;;;;;5.43;3.30;;;;;;;20.57;44.59;100097.41;7735979;32;38462;-81
2023/05/04 17:34:22;;;;;;;6.05;3.60;;;;;;;20.48;45.50;100096.62;7736139;32;37843;-82
2023/05/04 17:38:40;;;;;;;5.18;3.55;;;;;;;20.22;46.25;100103.06;7738551;32;40156;-81
2023/05/04 17:42:56;;;;;;;8.40;4.05;;;;;;;20.27;46.37;100107.59;7739613;32;39909;-81
2023/05/04 17:47:12;;;;;;;7.20;4.57;;;;;;;20.33;46.28;100105.47;7739516;32;39275;-83
2023/05/04 17:51:29;;;;;;;21.77;4.00;;;;;;;20.13;46.14;100107.81;7739607;32;36997;-67
2023/05/04 17:55:45;;;;;;;7.80;4.28;;;;;;;20.52;49.42;100108.66;7738630;32;39369;-83
2023/05/04 18:00:03;;;;;;;7.90;3.92;;;;;;;20.15;46.89;100113.00;7717572;32;39899;-83
2023/05/04 18:04:20;;;;;;;7.15;3.97;;;;;;;20.09;47.02;100123.41;7736919;32;36933;-79
2023/05/04 18:08:36;;;;;;;6.72;3.95;;;;;;;20.07;46.93;100125.72;7716541;32;37184;-81
2023/05/04 18:12:55;;;;;;;7.50;4.47;;;;;;;19.81;47.92;100134.03;7730149;32;40075;-81
2023/05/04 18:17:11;;;;;;;8.25;4.47;;;;;;;19.64;48.51;100134.81;7732306;32;39023;-67
2023/05/04 18:21:27;;;;;;;7.82;3.83;;;;;;;19.39;48.55;100142.75;7738977;32;38778;-81
2023/05/04 18:25:43;;;;;;;7.37;4.60;;;;;;;19.37;48.43;100158.84;7738131;32;37189;-81
2023/05/04 18:30:01;;;;;;;7.50;4.37;;;;;;;19.37;48.66;100156.09;7738723;32;40210;-81
2023/05/04 18:34:17;;;;;;;8.75;4.80;;;;;;;19.40;48.42;100152.66;7738357;32;40724;-82
2023/05/04 18:38:35;;;;;;;7.35;4.95;;;;;;;19.34;48.50;100162.25;7738726;32;37992;-81
2023/05/04 18:42:51;;;;;;;10.63;4.97;;;;;;;19.12;49.01;100169.50;7739009;32;37596;-82
2023/05/04 18:47:07;;;;;;;7.05;4.80;;;;;;;19.16;49.02;100177.94;7738518;32;39248;-82
2023/05/04 18:51:26;;;;;;;9.00;4.78;;;;;;;18.94;49.60;100179.69;7736589;32;40321;-81
2023/05/04 18:55:42;;;;;;;12.05;5.05;;;;;;;18.89;49.87;100187.28;7738718;32;38613;-82
2023/05/04 18:59:59;;;;;;;8.32;4.75;;;;;;;18.72;50.45;100199.84;7733218;32;36761;-81
2023/05/04 19:04:15;;;;;;;13.90;5.10;;;;;;;18.68;50.48;100198.84;7737542;32;40141;-80
2023/05/04 19:08:32;;;;;;;7.53;4.78;;;;;;;18.69;50.36;100202.41;7738504;32;40832;-79
2023/05/04 19:12:49;;;;;;;11.25;4.72;;;;;;;18.43;51.30;100202.25;7738475;32;38706;-81
2023/05/04 19:17:05;;;;;;;9.05;5.12;;;;;;;18.25;51.87;100204.06;7737256;32;37244;-80
2023/05/04 19:21:21;;;;;;;8.30;5.00;;;;;;;18.18;52.18;100213.63;7735834;32;39547;-79
2023/05/04 19:25:38;;;;;;;7.12;4.68;;;;;;;18.01;52.47;100213.47;7724587;32;40497;-80
2023/05/04 19:29:54;;;;;;;10.27;4.75;;;;;;;17.90;52.72;100215.66;7747533;32;37937;-82
2023/05/04 19:34:11;;;;;;;8.45;5.03;;;;;;;17.78;53.24;100218.09;7737280;32;36893;-81
2023/05/04 19:38:27;;;;;;;9.90;5.07;;;;;;;17.35;54.66;100219.28;7716187;32;40053;-82
2023/05/04 19:42:44;;;;;;;7.97;5.05;;;;;;;17.52;53.67;100215.88;7710980;32;40058;-80
2023/05/04 19:47:01;;;;;;;8.57;5.12;;;;;;;17.59;53.53;100216.31;7734130;32;37664;-83
2023/05/04 19:51:17;;;;;;;8.57;4.60;;;;;;;17.42;53.95;100219.69;7737394;32;37882;-79
2023/05/04 19:55:34;;;;;;;7.10;4.90;;;;;;;17.42;53.94;100216.94;7737154;32;39453;-80